createdAt,value
2022-08-22T00:02:03.044Z,3.17
2022-08-22T00:05:17.722Z,2.90
2022-08-22T00:08:55.035Z,3.08
2022-08-22T00:12:06.500Z,3.12
2022-08-22T00:15:43.171Z,2.67
2022-08-22T00:19:12.176Z,3.33
2022-08-22T00:22:36.199Z,3.03
2022-08-22T00:26:11.217Z,2.85
2022-08-22T00:29:26.997Z,2.22
2022-08-22T00:32:37.680Z,1.98
2022-08-22T00:35:45.346Z,2.22
2022-08-22T00:38:58.978Z,2.20
2022-08-22T00:42:29.045Z,2.00
2022-08-22T00:45:59.439Z,2.00
2022-08-22T00:49:11.475Z,2.05
2022-08-22T00:52:44.001Z,1.85
2022-08-22T00:56:23.766Z,2.12
2022-08-22T00:59:42.911Z,1.60
2022-08-22T01:03:21.137Z,2.17
2022-08-22T01:07:11.240Z,1.90
2022-08-22T01:10:35.473Z,1.67
2022-08-22T01:13:56.975Z,2.00
2022-08-22T01:17:00.755Z,1.65
2022-08-22T01:20:22.143Z,1.87
2022-08-22T01:23:46.157Z,2.00
2022-08-22T01:26:56.512Z,1.92
2022-08-22T01:30:41.244Z,2.33
2022-08-22T01:34:24.847Z,2.20
2022-08-22T01:37:54.447Z,1.70
2022-08-22T01:41:12.121Z,2.10
2022-08-22T01:44:21.000Z,2.00
2022-08-22T01:47:37.389Z,1.85
2022-08-22T01:50:53.145Z,2.15
2022-08-22T01:54:05.322Z,1.73
2022-08-22T01:57:09.211Z,1.77
2022-08-22T02:00:17.852Z,2.05
2022-08-22T02:03:56.920Z,1.98
2022-08-22T02:07:08.913Z,2.00
2022-08-22T02:11:10.463Z,2.00
2022-08-22T02:14:21.933Z,2.30
2022-08-22T02:17:50.353Z,2.50
2022-08-22T02:21:25.077Z,2.30
2022-08-22T02:24:40.652Z,2.72
2022-08-22T02:27:59.688Z,2.70
2022-08-22T02:31:07.533Z,2.58
2022-08-22T02:34:38.607Z,2.97
2022-08-22T02:38:01.778Z,2.55
2022-08-22T02:41:19.547Z,2.60
2022-08-22T02:44:35.429Z,2.97
2022-08-22T02:47:56.821Z,3.00
2022-08-22T02:51:32.319Z,3.05
2022-08-22T02:54:59.658Z,3.17
2022-08-22T02:58:17.855Z,3.30
2022-08-22T03:01:33.285Z,3.80
2022-08-22T03:04:42.008Z,3.70
2022-08-22T03:07:56.883Z,4.00
2022-08-22T03:11:17.799Z,4.12
2022-08-22T03:14:35.577Z,4.30
2022-08-22T03:18:00.190Z,4.40
2022-08-22T03:21:41.076Z,4.70
2022-08-22T03:24:55.552Z,4.62
2022-08-22T03:28:08.401Z,4.95
2022-08-22T03:31:13.179Z,4.90
2022-08-22T03:34:26.411Z,5.00
2022-08-22T03:37:35.257Z,4.90
2022-08-22T03:40:53.005Z,5.37
2022-08-22T03:44:16.763Z,5.30
2022-08-22T03:47:28.628Z,5.35
2022-08-22T03:51:08.279Z,4.80
2022-08-22T03:54:33.205Z,5.25
2022-08-22T03:58:04.050Z,5.10
2022-08-22T04:01:19.359Z,5.03
2022-08-22T04:04:40.454Z,5.20
2022-08-22T04:08:26.255Z,4.40
2022-08-22T04:12:01.370Z,4.50
2022-08-22T04:15:26.044Z,4.37
2022-08-22T04:19:00.702Z,4.12
2022-08-22T04:22:13.920Z,4.05
2022-08-22T04:25:29.844Z,4.47
2022-08-22T04:28:46.591Z,4.65
2022-08-22T04:32:16.420Z,4.37
2022-08-22T04:35:34.649Z,3.62
2022-08-22T04:38:47.777Z,3.65
2022-08-22T04:42:10.923Z,4.20
2022-08-22T04:45:24.141Z,4.00
2022-08-22T04:48:36.085Z,4.05
2022-08-22T04:51:47.777Z,4.30
2022-08-22T04:55:08.666Z,4.03
2022-08-22T04:58:39.198Z,4.30
2022-08-22T05:01:56.523Z,4.47
2022-08-22T05:05:13.581Z,4.55
2022-08-22T05:08:23.701Z,4.47
2022-08-22T05:11:27.777Z,4.43
2022-08-22T05:15:07.212Z,4.62
2022-08-22T05:18:24.048Z,4.32
2022-08-22T05:21:36.020Z,4.18
2022-08-22T05:24:53.662Z,4.28
2022-08-22T05:28:08.584Z,4.28
2022-08-22T05:31:18.596Z,4.05
2022-08-22T05:34:34.355Z,4.20
2022-08-22T05:37:40.373Z,4.60
2022-08-22T05:40:44.922Z,4.20
2022-08-22T05:43:48.807Z,4.40
2022-08-22T05:46:57.388Z,4.60
2022-08-22T05:50:05.434Z,4.32
2022-08-22T05:53:12.833Z,4.97
2022-08-22T05:56:28.238Z,4.20
2022-08-22T05:59:34.644Z,4.43
2022-08-22T06:03:09.431Z,4.97
2022-08-22T06:06:18.322Z,5.00
2022-08-22T06:09:39.840Z,4.90
2022-08-22T06:13:02.535Z,5.10
2022-08-22T06:16:34.233Z,5.35
2022-08-22T06:19:42.058Z,6.22
2022-08-22T06:22:51.801Z,4.70
2022-08-22T06:26:01.620Z,4.93
2022-08-22T06:29:07.351Z,4.85
2022-08-22T06:32:52.876Z,4.70
2022-08-22T06:36:09.886Z,5.37
2022-08-22T06:39:31.237Z,4.87
2022-08-22T06:42:39.142Z,5.30
2022-08-22T06:48:45.642Z,5.55
2022-08-22T06:51:49.951Z,5.18
2022-08-22T06:55:00.411Z,5.43
2022-08-22T06:58:07.306Z,5.43
2022-08-22T07:01:18.192Z,5.68
2022-08-22T07:04:26.591Z,6.53
2022-08-22T07:10:34.936Z,5.93
2022-08-22T07:13:43.083Z,6.60
2022-08-22T07:16:57.288Z,7.35
2022-08-22T07:20:23.997Z,6.12
2022-08-22T07:23:31.515Z,5.62
2022-08-22T07:27:02.168Z,6.60
2022-08-22T07:30:13.080Z,6.03
2022-08-22T07:37:14.798Z,6.53
2022-08-22T07:41:08.734Z,6.22
2022-08-22T07:44:22.698Z,6.53
2022-08-22T07:47:34.271Z,6.93
2022-08-22T07:51:14.865Z,6.50
2022-08-22T07:54:27.158Z,6.60
2022-08-22T07:57:32.975Z,7.00
2022-08-22T08:00:43.309Z,7.30
2022-08-22T08:03:57.179Z,6.70
2022-08-22T08:07:03.044Z,6.70
2022-08-22T08:10:13.153Z,6.50
2022-08-22T08:13:24.540Z,6.30
2022-08-22T08:16:31.850Z,6.53
2022-08-22T08:19:38.302Z,7.47
2022-08-22T08:22:44.693Z,6.45
2022-08-22T08:26:12.271Z,7.35
2022-08-22T08:29:18.706Z,7.10
2022-08-22T08:32:27.890Z,7.12
2022-08-22T08:35:42.361Z,6.90
2022-08-22T08:39:41.588Z,7.30
2022-08-22T08:43:27.456Z,7.03
2022-08-22T08:46:55.579Z,7.20
2022-08-22T08:50:01.799Z,7.53
2022-08-22T08:53:25.671Z,7.45
2022-08-22T08:56:38.005Z,7.18
2022-08-22T08:59:44.081Z,7.53
2022-08-22T09:02:59.044Z,8.02
2022-08-22T09:06:10.661Z,8.50
2022-08-22T09:09:52.378Z,8.45
2022-08-22T09:13:29.611Z,9.00
2022-08-22T09:17:15.425Z,8.68
2022-08-22T09:20:24.497Z,8.07
2022-08-22T09:24:02.349Z,9.05
2022-08-22T09:27:25.129Z,8.73
2022-08-22T09:30:46.318Z,8.13
2022-08-22T09:34:43.364Z,7.72
2022-08-22T09:37:59.083Z,8.65
2022-08-22T09:41:40.777Z,9.02
2022-08-22T09:45:11.826Z,7.78
2022-08-22T09:48:36.220Z,8.25
2022-08-22T09:52:03.663Z,8.13
2022-08-22T09:55:50.079Z,8.68
2022-08-22T09:59:12.040Z,8.48
2022-08-22T10:02:20.396Z,6.75
2022-08-22T10:05:43.947Z,5.67
2022-08-22T10:09:14.176Z,5.82
2022-08-22T10:12:35.167Z,5.87
2022-08-22T10:15:45.896Z,5.50
2022-08-22T10:19:20.146Z,6.12
2022-08-22T10:22:40.852Z,6.43
2022-08-22T10:25:51.653Z,7.22
2022-08-22T10:29:09.200Z,5.87
2022-08-22T10:32:37.850Z,6.20
2022-08-22T10:35:43.633Z,6.12
2022-08-22T10:38:53.317Z,6.12
2022-08-22T10:42:23.291Z,6.28
2022-08-22T10:45:39.739Z,5.50
2022-08-22T10:48:48.934Z,5.18
2022-08-22T10:52:06.531Z,4.60
2022-08-22T10:55:25.862Z,4.28
2022-08-22T10:58:36.879Z,5.07
2022-08-22T11:01:51.184Z,4.60
2022-08-22T11:05:00.116Z,5.75
2022-08-22T11:08:34.707Z,5.78
2022-08-22T11:11:54.203Z,5.78
2022-08-22T11:15:09.048Z,5.53
2022-08-22T11:18:20.857Z,5.45
2022-08-22T11:21:46.170Z,5.95
2022-08-22T11:25:11.250Z,5.60
2022-08-22T11:28:41.865Z,5.93
2022-08-22T11:32:11.523Z,5.30
2022-08-22T11:35:24.018Z,6.12
2022-08-22T11:38:33.327Z,6.30
2022-08-22T11:41:41.538Z,5.80
2022-08-22T11:44:54.339Z,5.95
2022-08-22T11:48:02.329Z,6.10
2022-08-22T11:51:15.437Z,5.90
2022-08-22T11:54:30.962Z,6.30
2022-08-22T11:57:55.989Z,7.20
2022-08-22T12:01:09.631Z,6.62
2022-08-22T12:04:34.346Z,6.85
2022-08-22T12:07:50.548Z,6.78
2022-08-22T12:11:07.557Z,7.15
2022-08-22T12:14:28.709Z,7.32
2022-08-22T12:18:01.599Z,6.82
2022-08-22T12:21:32.673Z,6.97
2022-08-22T12:25:10.979Z,6.70
2022-08-22T12:28:32.496Z,6.72
2022-08-22T12:32:28.569Z,6.22
2022-08-22T12:35:30.980Z,6.85
2022-08-22T12:39:00.257Z,6.65
2022-08-22T12:42:41.862Z,6.28
2022-08-22T12:46:15.692Z,6.37
2022-08-22T12:49:22.756Z,6.45
2022-08-22T12:52:53.681Z,6.10
2022-08-22T12:56:12.276Z,6.18
2022-08-22T12:59:32.496Z,6.12
2022-08-22T13:02:39.721Z,6.32
2022-08-22T13:05:56.852Z,5.80
2022-08-22T13:09:19.794Z,5.78
2022-08-22T13:12:44.608Z,6.07
2022-08-22T13:15:57.907Z,5.82
2022-08-22T13:19:07.593Z,6.53
2022-08-22T13:22:16.857Z,6.50
2022-08-22T13:25:25.379Z,7.03
2022-08-22T13:28:31.869Z,9.00
2022-08-22T13:31:38.695Z,9.05
2022-08-22T13:35:00.446Z,9.13
2022-08-22T13:38:12.332Z,8.13
2022-08-22T13:41:42.627Z,8.70
2022-08-22T13:44:54.649Z,9.13
2022-08-22T13:48:03.701Z,10.10
2022-08-22T13:51:25.137Z,9.70
2022-08-22T13:54:53.104Z,10.52
2022-08-22T13:58:07.660Z,11.82
2022-08-22T14:01:54.415Z,11.40
2022-08-22T14:05:01.281Z,12.50
2022-08-22T14:08:15.386Z,12.18
2022-08-22T14:11:27.483Z,12.60
2022-08-22T14:14:35.242Z,12.50
2022-08-22T14:17:43.611Z,11.30
2022-08-22T14:20:51.415Z,11.02
2022-08-22T14:24:00.138Z,9.68
2022-08-22T14:27:09.657Z,8.57
2022-08-22T14:30:17.049Z,7.75
2022-08-22T14:33:48.028Z,7.97
2022-08-22T14:37:01.793Z,7.45
2022-08-22T14:40:10.776Z,4.47
2022-08-22T14:43:31.910Z,3.22
2022-08-22T14:46:47.783Z,2.30
2022-08-22T14:49:56.815Z,2.42
2022-08-22T14:53:09.618Z,2.55
2022-08-22T14:56:24.889Z,2.62
2022-08-22T14:59:50.370Z,2.03
2022-08-22T15:03:05.413Z,2.05
2022-08-22T15:06:12.786Z,2.45
2022-08-22T15:09:36.371Z,2.00
2022-08-22T15:12:55.766Z,2.03
2022-08-22T15:16:05.660Z,2.47
2022-08-22T15:19:45.728Z,2.42
2022-08-22T15:26:13.257Z,2.50
2022-08-22T15:29:25.298Z,2.08
2022-08-22T15:32:32.303Z,2.37
2022-08-22T15:35:38.870Z,2.50
2022-08-22T15:38:47.895Z,2.30
2022-08-22T15:42:10.075Z,2.72
2022-08-22T15:45:29.805Z,2.70
2022-08-22T15:48:42.834Z,2.90
2022-08-22T15:52:00.926Z,3.05
2022-08-22T15:55:15.799Z,2.60
2022-08-22T15:58:24.643Z,2.50
2022-08-22T16:01:49.998Z,2.80
2022-08-22T16:05:05.692Z,2.70
2022-08-22T16:08:14.263Z,2.60
2022-08-22T16:11:23.766Z,2.55
2022-08-22T16:14:35.855Z,2.40
2022-08-22T16:17:43.064Z,2.30
2022-08-22T16:20:53.034Z,2.50
2022-08-22T16:23:58.707Z,2.10
2022-08-22T16:27:18.945Z,2.33
2022-08-22T16:30:33.504Z,1.80
2022-08-22T16:33:40.075Z,2.10
2022-08-22T16:36:49.082Z,2.33
2022-08-22T16:40:09.570Z,2.08
2022-08-22T16:43:19.919Z,2.53
2022-08-22T16:46:33.126Z,2.05
2022-08-22T16:49:53.038Z,1.90
2022-08-22T16:53:20.536Z,1.80
2022-08-22T16:57:04.061Z,2.20
2022-08-22T17:00:22.761Z,2.30
2022-08-22T17:03:31.924Z,2.50
2022-08-22T17:06:49.508Z,2.87
2022-08-22T17:09:55.245Z,2.75
2022-08-22T17:13:27.408Z,2.58
2022-08-22T17:16:39.835Z,2.47
2022-08-22T17:20:01.368Z,2.72
2022-08-22T17:23:11.879Z,2.80
2022-08-22T17:26:34.578Z,2.70
2022-08-22T17:29:51.999Z,3.00
2022-08-22T17:33:09.821Z,2.77
2022-08-22T17:40:04.446Z,2.80
2022-08-22T17:43:16.478Z,2.53
2022-08-22T17:46:46.738Z,2.70
2022-08-22T17:50:19.668Z,2.95
2022-08-22T17:53:27.920Z,2.58
2022-08-22T17:56:50.145Z,2.05
2022-08-22T18:00:15.926Z,2.62
2022-08-22T18:03:31.603Z,2.70
2022-08-22T18:06:38.804Z,2.95
2022-08-22T18:09:59.689Z,2.85
2022-08-22T18:13:14.979Z,2.00
2022-08-22T18:16:47.332Z,1.83
2022-08-22T18:19:54.137Z,1.85
2022-08-22T18:23:02.327Z,1.50
2022-08-22T18:26:27.744Z,1.75
2022-08-22T18:29:42.699Z,1.45
2022-08-22T18:33:13.701Z,1.65
2022-08-22T18:36:17.346Z,1.55
2022-08-22T18:39:50.748Z,1.67
2022-08-22T18:43:05.797Z,1.58
2022-08-22T18:46:30.174Z,1.25
2022-08-22T18:49:40.237Z,1.05
2022-08-22T18:52:42.866Z,1.33
2022-08-22T18:56:13.209Z,1.40
2022-08-22T18:59:21.838Z,1.15
2022-08-22T19:03:14.629Z,1.30
2022-08-22T19:06:32.073Z,1.35
2022-08-22T19:10:04.492Z,1.20
2022-08-22T19:13:39.048Z,1.40
2022-08-22T19:17:23.301Z,1.27
2022-08-22T19:20:54.473Z,1.60
2022-08-22T19:23:58.004Z,1.25
2022-08-22T19:27:18.772Z,1.25
2022-08-22T19:30:33.773Z,1.40
2022-08-22T19:33:41.791Z,1.10
2022-08-22T19:36:46.287Z,1.10
2022-08-22T19:39:51.497Z,1.00
2022-08-22T19:43:26.352Z,1.35
2022-08-22T19:46:39.709Z,1.30
2022-08-22T19:49:49.389Z,1.25
2022-08-22T19:53:18.763Z,1.58
2022-08-22T19:56:52.571Z,1.30
2022-08-22T20:00:08.370Z,1.20
2022-08-22T20:03:31.110Z,1.02
2022-08-22T20:06:44.988Z,1.15
2022-08-22T20:10:19.157Z,1.30
2022-08-22T20:13:25.310Z,1.60
2022-08-22T20:16:58.919Z,1.73
2022-08-22T20:20:19.234Z,1.60
2022-08-22T20:23:28.348Z,1.60
2022-08-22T20:26:31.643Z,1.42
2022-08-22T20:29:38.042Z,1.55
2022-08-22T20:32:58.002Z,1.55
2022-08-22T20:36:05.739Z,1.67
2022-08-22T20:42:16.100Z,1.30
2022-08-22T20:45:22.164Z,1.55
2022-08-22T20:48:41.025Z,1.15
2022-08-22T20:51:52.136Z,1.58
2022-08-22T20:55:31.582Z,1.48
2022-08-22T20:58:39.970Z,1.58
2022-08-22T21:01:43.432Z,2.20
2022-08-22T21:05:00.612Z,1.73
2022-08-22T21:08:15.100Z,1.87
2022-08-22T21:11:40.798Z,1.92
2022-08-22T21:14:46.362Z,1.90
2022-08-22T21:17:50.281Z,2.20
2022-08-22T21:20:52.952Z,2.60
2022-08-22T21:24:00.560Z,2.33
2022-08-22T21:27:06.638Z,2.30
2022-08-22T21:30:11.364Z,2.90
2022-08-22T21:33:23.630Z,3.42
2022-08-22T21:36:31.160Z,2.95
2022-08-22T21:39:44.152Z,2.75
2022-08-22T21:43:08.371Z,2.97
2022-08-22T21:46:10.973Z,2.90
2022-08-22T21:49:24.556Z,3.20
2022-08-22T21:52:29.289Z,3.70
2022-08-22T21:55:47.937Z,3.62
2022-08-22T21:58:50.473Z,3.95
2022-08-22T22:01:55.772Z,4.55
2022-08-22T22:05:00.709Z,4.32
2022-08-22T22:08:04.751Z,4.12
2022-08-22T22:11:13.527Z,4.80
2022-08-22T22:14:16.180Z,5.32
2022-08-22T22:17:20.096Z,5.05
2022-08-22T22:20:24.445Z,5.78
2022-08-22T22:23:27.858Z,6.05
2022-08-22T22:26:31.149Z,6.00
2022-08-22T22:29:35.159Z,7.15
2022-08-22T22:32:37.708Z,6.50
2022-08-22T22:35:40.842Z,6.75
2022-08-22T22:38:43.759Z,7.25
2022-08-22T22:41:47.448Z,6.28
2022-08-22T22:44:49.991Z,7.37
2022-08-22T22:47:52.882Z,7.10
2022-08-22T22:50:55.392Z,7.60
2022-08-22T22:53:58.371Z,7.15
2022-08-22T22:57:00.946Z,7.03
2022-08-22T23:00:07.404Z,7.55
2022-08-22T23:03:10.141Z,7.55
2022-08-22T23:06:18.802Z,6.70
2022-08-22T23:09:21.422Z,6.93
2022-08-22T23:12:31.130Z,7.25
2022-08-22T23:15:33.664Z,7.78
2022-08-22T23:18:36.551Z,8.75
2022-08-22T23:21:39.598Z,9.18
2022-08-22T23:24:42.745Z,8.45
2022-08-22T23:27:52.133Z,8.82
2022-08-22T23:30:55.867Z,8.38
2022-08-22T23:34:13.803Z,8.43
2022-08-22T23:37:19.877Z,8.85
2022-08-22T23:40:22.504Z,8.70
2022-08-22T23:43:25.491Z,8.80
2022-08-22T23:46:28.107Z,8.90
2022-08-22T23:49:34.852Z,9.32
2022-08-22T23:52:37.404Z,8.60
2022-08-22T23:55:40.468Z,8.52
2022-08-22T23:58:43.159Z,8.68
